Rauchtown, Pennsylvania
Current Conditions -  °F | °C
As of 9:14 PM on Monday 22 Dec 2014 (Local Time) from KIPT Reporting Station
Light Rain Light Rain  
Wind Chill: 27°   Ceiling: 900
Heat Index: 33°   Visibility: 5mi
Dew Point: 30°   Wind: 7mph
Humidity: 89%   Direction: 100°E
Pressure: 30.15"   Gusts: NA
Location:  41.1288°N, 77.1989°W
Report Text: KIPT 230214Z 10006KT 5SM -RA BR OVC009 01/M01 A3015 RMK AO2 RAB14FZRAE14 CIG 009V012 P0000 I1000 T00061011
Loading
Personal Weather Stations






























Interactive Weather Map New forecast layout! Learn more

10-Day Weather Forecast

Advertisements
Track Severe Weather on mobile